createdAt,value
2022-09-16T00:03:30.888Z,5.63
2022-09-16T00:06:19.751Z,5.15
2022-09-16T00:09:05.598Z,5.85
2022-09-16T00:25:52.513Z,5.85
2022-09-16T01:58:40.578Z,5.50
2022-09-16T02:01:15.126Z,6.22
2022-09-16T02:03:48.254Z,5.82
2022-09-16T02:06:20.674Z,6.03
2022-09-16T02:08:53.703Z,5.43
2022-09-16T03:02:40.980Z,6.40
2022-09-16T03:05:09.655Z,6.60
2022-09-16T03:07:37.834Z,7.28
2022-09-16T03:10:06.181Z,6.45
2022-09-16T03:12:56.384Z,7.93
2022-09-16T03:41:17.416Z,6.68
2022-09-16T04:58:26.860Z,9.27
2022-09-16T05:00:55.774Z,9.48
2022-09-16T05:03:23.805Z,9.80
2022-09-16T05:05:55.213Z,9.88
2022-09-16T05:08:22.729Z,9.23
2022-09-16T07:13:35.186Z,5.18
2022-09-16T07:16:13.996Z,5.35
2022-09-16T07:18:45.283Z,4.28
2022-09-16T07:21:17.163Z,4.72
2022-09-16T07:34:20.115Z,3.83
2022-09-16T07:36:49.562Z,3.50
2022-09-16T07:39:19.206Z,3.25
2022-09-16T07:41:48.468Z,3.30
2022-09-16T07:44:18.516Z,2.90
2022-09-16T07:54:50.590Z,1.88
2022-09-16T08:48:44.651Z,3.00
2022-09-16T08:51:19.807Z,2.40
2022-09-16T08:53:59.865Z,2.05
2022-09-16T08:56:35.686Z,1.92
2022-09-16T11:06:22.889Z,2.42
2022-09-16T11:11:53.867Z,2.75
2022-09-16T11:14:41.330Z,2.33
2022-09-16T11:17:35.404Z,2.75
2022-09-16T17:18:59.467Z,1.00
2022-09-16T17:21:46.441Z,0.98
2022-09-16T17:24:24.769Z,1.45
2022-09-16T23:28:47.076Z,1.05
2022-09-16T23:31:25.625Z,0.80
2022-09-16T23:34:00.414Z,0.88
2022-09-16T23:36:46.840Z,0.77
2022-09-16T23:39:30.248Z,0.77
2022-09-16T23:42:05.312Z,0.70
2022-09-16T23:44:45.367Z,0.77
2022-09-16T23:47:17.750Z,0.95
2022-09-16T23:50:06.611Z,0.90
2022-09-16T23:53:10.353Z,1.10
2022-09-16T23:56:07.699Z,1.23
2022-09-16T23:58:57.373Z,1.23
